createdAt,value
2018-12-07T05:00:24.731Z,0.87
2018-12-07T05:02:47.724Z,0.70
2018-12-07T05:05:11.240Z,0.70
2018-12-07T05:07:34.255Z,0.70
2018-12-07T05:09:57.021Z,0.60
2018-12-07T05:12:20.568Z,0.70
2018-12-07T05:14:43.543Z,0.70
2018-12-07T06:00:22.976Z,1.97
2018-12-07T06:02:45.640Z,2.03
2018-12-07T06:05:08.682Z,2.23
2018-12-07T06:07:31.311Z,2.60
2018-12-07T06:09:53.905Z,2.63
2018-12-07T06:12:16.499Z,2.77
2018-12-07T06:14:39.238Z,3.40
2018-12-07T07:00:19.657Z,4.17
2018-12-07T07:02:48.185Z,4.30
2018-12-07T07:05:10.869Z,3.90
2018-12-07T07:07:33.808Z,2.90
2018-12-07T07:09:56.430Z,3.20
2018-12-07T07:12:19.022Z,3.77
2018-12-07T07:14:41.681Z,3.40
2018-12-07T08:00:18.312Z,7.60
2018-12-07T08:02:40.933Z,6.53
2018-12-07T08:05:03.927Z,4.47
2018-12-07T08:07:27.701Z,3.20
2018-12-07T08:09:50.271Z,2.17
2018-12-07T08:12:12.857Z,0.70
2018-12-07T08:14:35.477Z,0.53
2018-12-07T09:00:16.766Z,0.20
2018-12-07T09:02:39.386Z,0.27
2018-12-07T09:05:02.022Z,2.37
2018-12-07T09:07:24.863Z,27.13
2018-12-07T09:09:47.502Z,30.57
2018-12-07T09:12:10.369Z,15.00
2018-12-07T09:14:33.075Z,7.90
2018-12-07T09:53:51.154Z,0.80
2018-12-07T09:56:13.777Z,0.73
2018-12-07T09:58:36.478Z,0.93
2018-12-07T10:00:59.085Z,0.70
2018-12-07T10:03:21.650Z,0.60
2018-12-07T10:05:44.965Z,0.60
2018-12-07T10:08:07.554Z,0.70
2018-12-07T10:10:30.184Z,0.77
2018-12-07T10:43:54.154Z,0.60
2018-12-07T10:46:16.785Z,0.70
2018-12-07T10:48:39.411Z,0.60
2018-12-07T10:51:07.961Z,0.60
2018-12-07T10:53:26.637Z,0.67
2018-12-07T10:55:49.270Z,0.60
2018-12-07T10:58:13.882Z,0.53
2018-12-07T11:00:42.252Z,0.90
2018-12-07T11:03:11.281Z,0.80
2018-12-07T11:05:39.615Z,0.63
2018-12-07T11:08:08.264Z,0.70
2018-12-07T11:10:36.779Z,0.60
2018-12-07T11:13:05.336Z,0.90
2018-12-07T12:04:49.557Z,0.50
2018-12-07T12:07:12.202Z,0.40
2018-12-07T12:09:34.852Z,0.30
2018-12-07T12:12:00.470Z,0.40
2018-12-07T12:14:23.269Z,0.60
2018-12-07T13:00:16.625Z,0.60
2018-12-07T13:02:39.281Z,0.50
2018-12-07T13:05:01.881Z,0.30
2018-12-07T13:07:24.725Z,0.40
2018-12-07T13:09:47.325Z,0.37
2018-12-07T13:12:09.940Z,0.40
2018-12-07T13:14:32.524Z,0.30
2018-12-07T14:00:17.284Z,0.40
2018-12-07T14:02:40.231Z,0.40
2018-12-07T14:05:03.504Z,0.47
2018-12-07T14:07:26.198Z,0.30
2018-12-07T14:09:49.039Z,0.43
2018-12-07T14:12:12.968Z,0.40
2018-12-07T14:14:35.616Z,0.30
2018-12-07T15:00:16.333Z,0.60
2018-12-07T15:02:39.253Z,0.60
2018-12-07T15:05:02.084Z,0.63
2018-12-07T15:07:24.986Z,0.70
2018-12-07T15:09:48.770Z,0.70
2018-12-07T15:12:11.656Z,0.70
2018-12-07T15:14:34.265Z,0.70
2018-12-07T16:00:16.297Z,0.70
2018-12-07T16:02:38.980Z,0.60
2018-12-07T16:05:01.931Z,0.70
2018-12-07T16:07:24.692Z,0.40
2018-12-07T16:09:47.611Z,0.70
2018-12-07T16:12:10.520Z,0.60
2018-12-07T16:14:33.417Z,1.20
2018-12-07T17:00:23.950Z,1.00
2018-12-07T17:02:46.713Z,0.80
2018-12-07T17:05:09.833Z,1.03
2018-12-07T17:07:33.788Z,0.90
2018-12-07T17:09:56.554Z,0.90
2018-12-07T17:12:19.414Z,1.20
2018-12-07T17:14:42.090Z,1.17
2018-12-07T18:00:21.868Z,1.10
2018-12-07T18:02:44.532Z,0.87
2018-12-07T18:05:08.061Z,1.00
2018-12-07T18:07:31.116Z,0.90
2018-12-07T18:09:54.028Z,1.07
2018-12-07T18:12:16.755Z,1.10
2018-12-07T18:14:39.655Z,0.97
2018-12-07T19:00:26.779Z,0.90
2018-12-07T19:02:49.677Z,0.90
2018-12-07T19:05:12.483Z,0.93
2018-12-07T19:07:35.427Z,0.70
2018-12-07T19:09:58.309Z,0.80
2018-12-07T19:12:21.045Z,0.80
2018-12-07T19:14:43.704Z,0.70
2018-12-07T20:00:23.220Z,0.40
2018-12-07T20:02:46.098Z,0.40
2018-12-07T20:05:09.030Z,0.40
2018-12-07T20:07:33.022Z,0.80
2018-12-07T20:12:38.962Z,0.37
2018-12-07T20:15:01.702Z,0.40
2018-12-07T20:54:28.473Z,0.60
2018-12-07T20:56:54.068Z,0.50
2018-12-07T20:59:16.789Z,0.60
2018-12-07T21:01:39.634Z,0.50
2018-12-07T21:04:24.559Z,0.50
2018-12-07T21:07:32.288Z,0.90
2018-12-07T21:11:10.334Z,0.40
2018-12-07T21:13:50.098Z,0.20
